createdAt,value
2023-03-21T00:02:01.371Z,31.64
2023-03-21T00:06:01.144Z,31.61
2023-03-21T00:10:12.418Z,31.62
2023-03-21T00:14:02.330Z,31.59
2023-03-21T00:18:01.079Z,31.56
2023-03-21T00:22:07.422Z,31.56
2023-03-21T00:26:02.041Z,31.57
2023-03-21T00:30:00.963Z,31.54
2023-03-21T00:34:00.905Z,31.54
2023-03-21T00:38:00.870Z,31.55
2023-03-21T00:42:00.846Z,31.54
2023-03-21T00:46:00.788Z,31.55
2023-03-21T00:50:00.783Z,31.53
2023-03-21T00:54:00.781Z,31.53
2023-03-21T00:58:02.450Z,31.51
2023-03-21T01:02:00.734Z,31.50
2023-03-21T01:06:00.737Z,31.48
2023-03-21T01:10:00.720Z,31.46
2023-03-21T01:14:14.571Z,31.44
2023-03-21T01:18:01.692Z,31.43
2023-03-21T01:22:00.876Z,31.37
2023-03-21T01:26:00.687Z,31.33
2023-03-21T01:30:01.338Z,31.33
2023-03-21T01:34:00.547Z,31.32
2023-03-21T01:38:00.596Z,31.34
2023-03-21T01:42:00.548Z,31.33
2023-03-21T01:46:00.604Z,31.31
2023-03-21T01:50:00.538Z,31.31
2023-03-21T01:54:00.405Z,31.32
2023-03-21T01:58:06.462Z,31.31
2023-03-21T02:02:01.326Z,31.29
2023-03-21T02:06:00.407Z,31.29
2023-03-21T02:10:00.357Z,31.29
2023-03-21T02:14:06.790Z,31.29
2023-03-21T02:18:01.161Z,31.27
2023-03-21T02:22:00.194Z,31.22
2023-03-21T02:26:00.101Z,31.20
2023-03-21T02:30:00.053Z,31.19
2023-03-21T02:34:00.099Z,31.18
2023-03-21T02:38:01.020Z,31.17
2023-03-21T02:41:59.967Z,31.15
2023-03-21T02:45:59.962Z,31.15
2023-03-21T02:50:00.430Z,31.11
2023-03-21T02:54:26.155Z,31.10
2023-03-21T02:58:12.404Z,31.09
2023-03-21T03:02:01.881Z,31.09
2023-03-21T03:05:59.859Z,31.10
2023-03-21T03:09:59.830Z,31.08
2023-03-21T03:13:59.857Z,31.07
2023-03-21T03:17:59.775Z,31.06
2023-03-21T03:21:59.904Z,31.06
2023-03-21T03:25:59.723Z,31.05
2023-03-21T03:29:59.697Z,31.02
2023-03-21T03:33:59.669Z,31.04
2023-03-21T03:37:59.587Z,31.05
2023-03-21T03:42:18.338Z,31.02
2023-03-21T03:46:00.550Z,31.01
2023-03-21T03:49:59.558Z,30.99
2023-03-21T03:53:59.472Z,30.99
2023-03-21T03:57:59.443Z,30.95
2023-03-21T04:01:59.467Z,30.95
2023-03-21T04:05:59.409Z,30.94
2023-03-21T04:09:59.327Z,30.94
2023-03-21T04:13:59.290Z,30.92
2023-03-21T04:17:59.263Z,30.92
2023-03-21T04:21:59.234Z,30.91
2023-03-21T04:25:59.244Z,30.87
2023-03-21T04:29:59.234Z,30.87
2023-03-21T04:33:59.256Z,30.87
2023-03-21T04:37:59.234Z,30.85
2023-03-21T04:41:59.206Z,30.84
2023-03-21T04:45:59.274Z,30.81
2023-03-21T04:49:59.981Z,30.81
2023-03-21T04:53:59.271Z,30.81
2023-03-21T04:57:59.299Z,30.80
2023-03-21T05:01:59.323Z,30.79
2023-03-21T05:05:59.336Z,30.77
2023-03-21T05:10:01.333Z,30.77
2023-03-21T05:14:00.962Z,30.77
2023-03-21T05:17:59.908Z,30.76
2023-03-21T05:21:59.229Z,30.76
2023-03-21T05:25:59.475Z,30.74
2023-03-21T05:29:59.107Z,30.72
2023-03-21T05:33:59.149Z,30.68
2023-03-21T05:37:59.120Z,30.68
2023-03-21T05:41:59.091Z,30.66
2023-03-21T05:45:58.998Z,30.59
2023-03-21T05:49:59.022Z,30.57
2023-03-21T05:53:58.936Z,30.52
2023-03-21T05:57:58.969Z,30.49
2023-03-21T06:01:58.861Z,30.38
2023-03-21T06:05:58.915Z,30.35
2023-03-21T06:09:58.927Z,30.27
2023-03-21T06:13:58.923Z,30.25
2023-03-21T06:17:59.057Z,30.25
2023-03-21T06:21:59.025Z,30.36
2023-03-21T06:25:58.978Z,30.57
2023-03-21T06:29:59.109Z,30.52
2023-03-21T06:34:00.226Z,33.29
2023-03-21T06:37:59.232Z,32.38
2023-03-21T06:41:59.225Z,32.37
2023-03-21T06:45:59.195Z,32.61
2023-03-21T06:49:59.373Z,32.40
2023-03-21T06:53:59.444Z,32.24
2023-03-21T06:57:59.416Z,32.12
2023-03-21T07:01:59.670Z,32.23
2023-03-21T07:05:59.626Z,32.39
2023-03-21T07:09:59.861Z,32.36
2023-03-21T07:14:00.620Z,32.31
2023-03-21T07:18:01.002Z,32.34
2023-03-21T07:21:59.762Z,32.34
2023-03-21T07:25:59.874Z,32.35
2023-03-21T07:29:59.917Z,32.65
2023-03-21T07:33:59.965Z,32.38
2023-03-21T07:38:00.129Z,33.13
2023-03-21T07:42:00.064Z,33.60
2023-03-21T07:46:01.065Z,33.72
2023-03-21T07:50:00.239Z,33.90
2023-03-21T07:54:00.413Z,34.20
2023-03-21T07:58:00.519Z,34.06
2023-03-21T08:02:00.614Z,33.68
2023-03-21T08:06:00.590Z,33.45
2023-03-21T08:10:01.640Z,33.36
2023-03-21T08:14:00.746Z,33.33
2023-03-21T08:18:00.867Z,33.63
2023-03-21T08:22:01.468Z,33.68
2023-03-21T08:26:01.164Z,33.52
2023-03-21T08:30:01.289Z,33.63
2023-03-21T08:34:01.542Z,34.25
2023-03-21T08:38:01.787Z,34.72
2023-03-21T08:42:01.999Z,33.72
2023-03-21T08:46:02.044Z,33.76
2023-03-21T08:50:02.243Z,33.64
2023-03-21T08:54:02.675Z,33.67
2023-03-21T08:58:02.535Z,33.73
2023-03-21T09:02:03.005Z,33.77
2023-03-21T09:06:03.507Z,33.92
2023-03-21T09:10:19.613Z,34.00
2023-03-21T09:14:04.016Z,33.90
2023-03-21T09:18:03.125Z,33.99
2023-03-21T09:22:03.249Z,33.80
2023-03-21T09:26:04.097Z,33.85
2023-03-21T09:30:03.703Z,34.28
2023-03-21T09:34:07.105Z,34.11
2023-03-21T09:38:03.739Z,34.03
2023-03-21T09:42:07.823Z,34.48
2023-03-21T09:46:03.701Z,33.90
2023-03-21T09:50:16.395Z,33.69
2023-03-21T09:54:05.029Z,33.60
2023-03-21T09:58:04.128Z,33.64
2023-03-21T10:02:04.034Z,33.68
2023-03-21T10:06:06.062Z,33.68
2023-03-21T10:10:05.050Z,33.53
2023-03-21T10:14:04.408Z,33.29
2023-03-21T10:18:05.629Z,33.11
2023-03-21T10:22:06.118Z,33.06
2023-03-21T10:26:05.009Z,33.16
2023-03-21T10:30:05.124Z,33.99
2023-03-21T10:34:05.359Z,34.50
2023-03-21T10:38:06.202Z,34.53
2023-03-21T10:42:05.741Z,34.52
2023-03-21T10:46:05.852Z,34.00
2023-03-21T10:50:08.859Z,33.81
2023-03-21T10:54:06.348Z,33.82
2023-03-21T10:58:05.943Z,34.06
2023-03-21T11:02:05.997Z,34.10
2023-03-21T11:06:06.202Z,34.02
2023-03-21T11:10:05.991Z,34.13
2023-03-21T11:14:05.794Z,34.30
2023-03-21T11:18:05.878Z,34.25
2023-03-21T11:22:05.697Z,34.20
2023-03-21T11:26:06.036Z,34.40
2023-03-21T11:30:05.998Z,34.52
2023-03-21T11:34:07.046Z,34.61
2023-03-21T11:38:06.610Z,34.03
2023-03-21T11:42:06.136Z,33.62
2023-03-21T11:46:06.208Z,33.25
2023-03-21T11:50:08.577Z,32.92
2023-03-21T11:54:05.760Z,32.87
2023-03-21T11:58:14.200Z,33.05
2023-03-21T12:02:06.841Z,33.22
2023-03-21T12:06:05.713Z,33.02
2023-03-21T12:10:05.932Z,32.46
2023-03-21T12:14:06.155Z,32.27
2023-03-21T12:18:06.452Z,32.05
2023-03-21T12:22:07.418Z,34.18
2023-03-21T12:26:06.759Z,33.42
2023-03-21T12:30:06.574Z,33.05
2023-03-21T12:34:06.610Z,32.73
2023-03-21T12:38:06.531Z,32.48
2023-03-21T12:42:08.040Z,32.50
2023-03-21T12:46:06.422Z,32.26
2023-03-21T12:50:06.461Z,32.34
2023-03-21T12:54:06.495Z,32.46
2023-03-21T12:58:06.540Z,32.63
2023-03-21T13:02:06.665Z,33.04
2023-03-21T13:06:06.932Z,33.71
2023-03-21T13:10:07.072Z,33.87
2023-03-21T13:14:08.111Z,33.97
2023-03-21T13:18:07.709Z,36.08
2023-03-21T13:22:07.723Z,36.11
2023-03-21T13:26:07.775Z,34.42
2023-03-21T13:30:08.828Z,33.90
2023-03-21T13:34:07.726Z,33.30
2023-03-21T13:38:08.726Z,33.00
2023-03-21T13:42:07.740Z,32.75
2023-03-21T13:46:09.816Z,32.99
2023-03-21T13:50:07.695Z,32.51
2023-03-21T13:54:08.188Z,31.90
2023-03-21T13:58:07.986Z,31.87
2023-03-21T14:02:08.176Z,32.92
2023-03-21T14:06:08.456Z,33.77
2023-03-21T14:10:08.762Z,33.55
2023-03-21T14:14:08.696Z,33.08
2023-03-21T14:18:21.219Z,32.68
2023-03-21T14:22:09.977Z,32.26
2023-03-21T14:26:08.903Z,31.91
2023-03-21T14:30:09.717Z,31.78
2023-03-21T14:34:08.856Z,31.56
2023-03-21T14:38:09.648Z,31.34
2023-03-21T14:42:08.772Z,31.31
2023-03-21T14:46:08.838Z,31.48
2023-03-21T14:50:08.731Z,31.54
2023-03-21T14:54:08.647Z,31.77
2023-03-21T14:58:08.645Z,33.01
2023-03-21T15:02:08.655Z,32.25
2023-03-21T15:06:08.903Z,32.55
2023-03-21T15:10:09.038Z,32.76
2023-03-21T15:14:09.337Z,32.90
2023-03-21T15:18:09.441Z,32.99
2023-03-21T15:22:10.182Z,32.92
2023-03-21T15:26:09.791Z,32.61
2023-03-21T15:30:10.034Z,33.09
2023-03-21T15:34:10.157Z,33.35
2023-03-21T15:38:10.328Z,33.62
2023-03-21T15:42:10.501Z,34.12
2023-03-21T15:46:10.843Z,34.40
2023-03-21T15:50:10.798Z,34.12
2023-03-21T15:54:13.366Z,34.05
2023-03-21T15:58:10.921Z,34.17
2023-03-21T16:02:11.048Z,34.14
2023-03-21T16:06:11.294Z,33.97
2023-03-21T16:10:10.942Z,33.88
2023-03-21T16:14:10.809Z,33.81
2023-03-21T16:18:11.488Z,34.54
2023-03-21T16:22:11.054Z,34.88
2023-03-21T16:26:11.697Z,35.08
2023-03-21T16:30:11.724Z,33.99
2023-03-21T16:34:11.620Z,33.88
2023-03-21T16:38:12.285Z,33.96
2023-03-21T16:42:11.951Z,33.99
2023-03-21T16:46:12.824Z,34.00
2023-03-21T16:50:12.476Z,34.02
2023-03-21T16:54:12.573Z,33.93
2023-03-21T16:58:12.642Z,33.87
2023-03-21T17:02:12.903Z,33.89
2023-03-21T17:06:13.068Z,33.87
2023-03-21T17:10:13.290Z,33.82
2023-03-21T17:14:13.365Z,33.83
2023-03-21T17:18:13.527Z,33.78
2023-03-21T17:22:14.684Z,34.35
2023-03-21T17:26:13.869Z,33.82
2023-03-21T17:30:15.279Z,33.76
2023-03-21T17:34:14.240Z,33.71
2023-03-21T17:38:14.906Z,33.67
2023-03-21T17:42:14.559Z,33.76
2023-03-21T17:46:14.621Z,33.81
2023-03-21T17:50:14.748Z,33.83
2023-03-21T17:54:14.836Z,33.85
2023-03-21T17:58:15.246Z,33.86
2023-03-21T18:02:15.135Z,33.94
2023-03-21T18:06:15.244Z,33.94
2023-03-21T18:10:15.425Z,33.92
2023-03-21T18:14:18.814Z,33.98
2023-03-21T18:18:15.574Z,33.94
2023-03-21T18:22:15.632Z,33.93
2023-03-21T18:26:15.529Z,33.95
2023-03-21T18:30:31.904Z,33.92
2023-03-21T18:34:16.590Z,33.87
2023-03-21T18:38:16.358Z,33.83
2023-03-21T18:42:18.913Z,33.89
2023-03-21T18:46:16.756Z,33.83
2023-03-21T18:50:15.762Z,33.78
2023-03-21T18:54:15.844Z,33.76
2023-03-21T18:58:15.974Z,33.77
2023-03-21T19:02:16.303Z,33.76
2023-03-21T19:06:17.684Z,33.75
2023-03-21T19:10:18.877Z,33.70
2023-03-21T19:14:16.424Z,33.67
2023-03-21T19:18:37.612Z,33.65
2023-03-21T19:22:17.795Z,33.65
2023-03-21T19:26:16.537Z,33.65
2023-03-21T19:30:16.378Z,33.60
2023-03-21T19:34:16.476Z,33.60
2023-03-21T19:38:16.772Z,33.54
2023-03-21T19:42:17.762Z,33.53
2023-03-21T19:46:17.076Z,33.52
2023-03-21T19:51:03.247Z,33.48
2023-03-21T19:54:18.124Z,33.48
2023-03-21T19:58:17.118Z,33.45
2023-03-21T20:02:34.402Z,33.44
2023-03-21T20:06:18.209Z,33.42
2023-03-21T20:10:17.288Z,33.39
2023-03-21T20:14:17.130Z,33.35
2023-03-21T20:18:17.092Z,33.32
2023-03-21T20:22:27.632Z,33.30
2023-03-21T20:26:18.061Z,33.31
2023-03-21T20:30:17.125Z,33.29
2023-03-21T20:34:17.113Z,33.28
2023-03-21T20:38:17.260Z,33.24
2023-03-21T20:42:17.339Z,33.25
2023-03-21T20:46:17.488Z,33.23
2023-03-21T20:50:17.623Z,33.21
2023-03-21T20:54:17.832Z,33.17
2023-03-21T20:58:43.741Z,33.15
2023-03-21T21:02:19.277Z,33.12
2023-03-21T21:06:17.959Z,33.10
2023-03-21T21:10:18.071Z,33.08
2023-03-21T21:14:18.052Z,33.09
2023-03-21T21:18:18.424Z,33.10
2023-03-21T21:22:18.315Z,33.07
2023-03-21T21:26:18.251Z,33.10
2023-03-21T21:30:18.440Z,33.05
2023-03-21T21:34:18.524Z,33.00
2023-03-21T21:38:18.559Z,32.98
2023-03-21T21:42:18.494Z,33.00
2023-03-21T21:46:18.672Z,32.97
2023-03-21T21:50:20.337Z,32.94
2023-03-21T21:54:18.775Z,32.91
2023-03-21T21:58:18.723Z,32.88
2023-03-21T22:02:18.656Z,32.90
2023-03-21T22:06:18.559Z,32.88
2023-03-21T22:10:21.365Z,32.87
2023-03-21T22:14:20.409Z,32.89
2023-03-21T22:18:18.433Z,32.89
2023-03-21T22:22:18.508Z,32.86
2023-03-21T22:26:18.539Z,32.86
2023-03-21T22:30:18.443Z,32.88
2023-03-21T22:34:18.435Z,32.85
2023-03-21T22:38:18.848Z,32.81
2023-03-21T22:42:18.215Z,32.79
2023-03-21T22:46:18.451Z,32.76
2023-03-21T22:50:18.227Z,32.76
2023-03-21T22:54:18.190Z,32.74
2023-03-21T22:58:18.184Z,32.73
2023-03-21T23:02:18.067Z,32.73
2023-03-21T23:06:18.117Z,32.76
2023-03-21T23:10:18.201Z,32.73
2023-03-21T23:14:18.163Z,32.71
2023-03-21T23:18:18.196Z,32.70
2023-03-21T23:22:19.872Z,32.67
2023-03-21T23:26:18.309Z,32.67
2023-03-21T23:30:18.386Z,32.66
2023-03-21T23:34:18.557Z,32.62
2023-03-21T23:38:19.356Z,32.62
2023-03-21T23:42:18.657Z,32.62
2023-03-21T23:46:18.935Z,32.60
2023-03-21T23:50:19.401Z,32.57
2023-03-21T23:54:19.515Z,32.55
2023-03-21T23:58:18.730Z,32.55
